createdAt,value
2019-02-15T00:01:22.707Z,15.13
2019-02-15T00:03:51.152Z,14.17
2019-02-15T00:06:19.598Z,14.83
2019-02-15T00:08:48.038Z,14.13
2019-02-15T00:11:16.491Z,14.27
2019-02-15T00:13:45.595Z,15.33
2019-02-15T00:16:14.045Z,15.20
2019-02-15T00:18:44.325Z,15.00
2019-02-15T00:21:23.745Z,14.20
2019-02-15T00:23:52.219Z,14.97
2019-02-15T00:26:20.761Z,16.33
2019-02-15T00:28:49.249Z,14.60
2019-02-15T00:31:18.683Z,16.43
2019-02-15T00:33:47.182Z,17.87
2019-02-15T00:36:15.654Z,16.87
2019-02-15T00:38:44.096Z,17.63
2019-02-15T00:41:12.554Z,16.90
2019-02-15T00:43:43.295Z,18.87
2019-02-15T00:46:30.211Z,18.40
2019-02-15T00:48:59.731Z,18.40
2019-02-15T00:51:41.927Z,19.10
2019-02-15T00:54:30.323Z,19.50
2019-02-15T00:57:19.444Z,17.90
2019-02-15T00:59:55.521Z,16.80
2019-02-15T01:02:25.654Z,17.80
2019-02-15T01:05:04.919Z,18.27
2019-02-15T01:07:44.279Z,17.87
2019-02-15T01:10:32.536Z,17.63
2019-02-15T01:13:05.553Z,16.63
2019-02-15T01:15:34.188Z,17.37
2019-02-15T01:18:02.643Z,16.93
2019-02-15T01:20:31.086Z,16.47
2019-02-15T01:22:59.535Z,15.20
2019-02-15T01:25:29.615Z,15.57
2019-02-15T01:27:59.703Z,14.07
2019-02-15T01:30:35.652Z,13.63
2019-02-15T01:33:11.700Z,13.80
2019-02-15T01:38:47.792Z,14.60
2019-02-15T01:41:18.009Z,12.97
2019-02-15T01:43:50.871Z,13.80
2019-02-15T01:46:20.966Z,14.23
2019-02-15T01:48:49.462Z,13.37
2019-02-15T01:51:17.919Z,14.40
2019-02-15T01:53:46.406Z,14.27
2019-02-15T01:56:15.779Z,13.97
2019-02-15T01:58:44.349Z,14.93
2019-02-15T02:01:14.511Z,15.07
2019-02-15T02:03:43.067Z,14.83
2019-02-15T02:06:11.570Z,13.67
2019-02-15T02:08:40.565Z,13.60
2019-02-15T02:11:09.015Z,14.77
2019-02-15T02:13:37.462Z,12.67
2019-02-15T02:16:05.951Z,15.13
2019-02-15T02:18:34.403Z,15.40
2019-02-15T02:21:02.919Z,12.80
2019-02-15T02:23:31.363Z,14.70
2019-02-15T02:25:59.815Z,12.47
2019-02-15T02:28:28.260Z,12.83
2019-02-15T02:30:56.714Z,13.50
2019-02-15T02:33:25.158Z,14.20
2019-02-15T02:35:53.628Z,12.57
2019-02-15T02:38:22.067Z,13.33
2019-02-15T02:40:50.522Z,14.17
2019-02-15T02:43:18.978Z,14.30
2019-02-15T02:45:47.539Z,13.93
2019-02-15T02:48:16.134Z,14.00
2019-02-15T02:50:44.612Z,14.33
2019-02-15T02:53:13.122Z,13.47
2019-02-15T02:55:41.574Z,14.83
2019-02-15T02:58:10.021Z,14.63
2019-02-15T03:00:38.550Z,13.60
2019-02-15T03:03:07.048Z,13.87
2019-02-15T03:05:35.559Z,12.60
2019-02-15T03:08:04.019Z,13.17
2019-02-15T03:10:32.598Z,13.23
2019-02-15T03:13:01.041Z,12.73
2019-02-15T03:15:29.502Z,13.50
2019-02-15T03:17:57.968Z,12.10
2019-02-15T03:20:31.226Z,13.70
2019-02-15T03:22:56.607Z,11.73
2019-02-15T03:25:25.060Z,11.57
2019-02-15T03:27:53.577Z,13.07
2019-02-15T03:30:22.029Z,13.37
2019-02-15T03:32:50.548Z,14.03
2019-02-15T03:35:19.081Z,14.67
2019-02-15T03:37:49.188Z,13.17
2019-02-15T03:40:22.044Z,13.57
2019-02-15T03:42:50.495Z,11.97
2019-02-15T03:45:18.945Z,12.73
2019-02-15T03:47:47.411Z,13.57
2019-02-15T03:50:16.058Z,11.90
2019-02-15T03:52:44.507Z,13.27
2019-02-15T03:55:14.203Z,13.13
2019-02-15T03:57:42.767Z,13.63
2019-02-15T04:00:13.055Z,12.80
2019-02-15T04:02:41.746Z,12.37
2019-02-15T04:05:10.204Z,12.10
2019-02-15T04:07:41.692Z,11.63
2019-02-15T04:10:10.202Z,12.50
2019-02-15T04:12:38.807Z,11.57
2019-02-15T04:15:08.638Z,12.43
2019-02-15T04:17:37.307Z,12.03
2019-02-15T04:20:08.443Z,13.20
2019-02-15T04:22:36.938Z,12.10
2019-02-15T04:25:06.291Z,12.83
2019-02-15T04:27:34.753Z,12.90
2019-02-15T04:30:03.423Z,14.43
2019-02-15T04:32:31.877Z,11.07
2019-02-15T04:35:00.333Z,12.33
2019-02-15T04:37:28.839Z,12.40
2019-02-15T04:39:57.286Z,11.77
2019-02-15T04:42:25.817Z,12.30
2019-02-15T04:44:54.264Z,11.67
2019-02-15T04:47:22.809Z,10.53
2019-02-15T04:49:51.363Z,10.47
2019-02-15T04:52:19.826Z,12.40
2019-02-15T04:54:48.280Z,13.13
2019-02-15T04:57:16.736Z,11.83
2019-02-15T04:59:45.190Z,12.20
2019-02-15T05:02:13.643Z,11.07
2019-02-15T05:04:42.081Z,12.90
2019-02-15T05:07:10.520Z,11.40
2019-02-15T05:09:38.966Z,11.30
2019-02-15T05:12:07.409Z,12.00
2019-02-15T05:14:35.859Z,11.30
2019-02-15T05:17:04.308Z,12.03
2019-02-15T05:19:32.760Z,12.33
2019-02-15T05:22:01.223Z,11.83
2019-02-15T05:24:29.678Z,11.93
2019-02-15T05:26:58.122Z,12.80
2019-02-15T05:29:26.580Z,11.77
2019-02-15T05:31:55.037Z,12.40
2019-02-15T05:34:23.483Z,11.67
2019-02-15T05:36:51.940Z,12.60
2019-02-15T05:39:20.392Z,12.40
2019-02-15T05:41:48.832Z,11.57
2019-02-15T05:44:17.294Z,12.93
2019-02-15T05:46:46.427Z,13.00
2019-02-15T05:49:14.882Z,13.23
2019-02-15T05:51:43.474Z,12.67
2019-02-15T05:54:13.675Z,14.83
2019-02-15T05:56:42.183Z,13.17
2019-02-15T05:59:10.640Z,14.03
2019-02-15T06:01:39.460Z,13.77
2019-02-15T06:04:08.190Z,13.47
2019-02-15T06:06:36.700Z,14.70
2019-02-15T06:09:06.407Z,12.20
2019-02-15T06:11:34.926Z,12.60
2019-02-15T06:14:03.447Z,12.80
2019-02-15T06:16:31.916Z,13.23
2019-02-15T06:19:00.447Z,13.27
2019-02-15T06:21:28.947Z,14.13
2019-02-15T06:23:57.412Z,14.67
2019-02-15T06:26:25.854Z,15.60
2019-02-15T06:28:54.309Z,14.60
2019-02-15T06:31:22.756Z,14.83
2019-02-15T06:33:51.215Z,13.97
2019-02-15T06:36:19.659Z,14.23
2019-02-15T06:38:48.116Z,15.10
2019-02-15T06:41:16.572Z,15.07
2019-02-15T06:43:45.028Z,14.97
2019-02-15T06:46:13.482Z,16.23
2019-02-15T06:48:41.927Z,14.20
2019-02-15T06:51:10.380Z,12.80
2019-02-15T06:53:38.831Z,12.73
2019-02-15T06:56:07.274Z,11.60
2019-02-15T06:58:45.418Z,12.53
2019-02-15T07:01:11.835Z,11.83
2019-02-15T07:03:41.927Z,11.40
2019-02-15T07:06:10.383Z,10.17
2019-02-15T07:08:38.810Z,9.90
2019-02-15T07:11:26.598Z,10.17
2019-02-15T07:13:55.045Z,11.20
2019-02-15T07:16:23.496Z,10.87
2019-02-15T07:18:51.947Z,9.67
2019-02-15T07:21:20.401Z,10.40
2019-02-15T07:23:49.032Z,10.93
2019-02-15T07:26:17.588Z,10.00
2019-02-15T07:28:46.594Z,10.63
2019-02-15T07:31:15.055Z,10.40
2019-02-15T07:33:43.500Z,10.73
2019-02-15T07:36:11.951Z,9.80
2019-02-15T07:38:40.401Z,9.40
2019-02-15T07:41:08.859Z,11.07
2019-02-15T07:43:37.304Z,10.50
2019-02-15T07:46:05.767Z,10.13
2019-02-15T07:48:34.207Z,9.63
2019-02-15T07:51:09.329Z,10.10
2019-02-15T07:53:32.840Z,10.33
2019-02-15T07:56:01.303Z,9.33
2019-02-15T07:58:29.811Z,9.37
2019-02-15T08:00:58.263Z,10.00
2019-02-15T08:03:26.702Z,9.93
2019-02-15T08:05:55.247Z,9.57
2019-02-15T08:08:23.694Z,9.20
2019-02-15T08:10:52.142Z,9.47
2019-02-15T08:13:20.583Z,9.90
2019-02-15T08:15:52.039Z,9.43
2019-02-15T08:18:19.199Z,10.70
2019-02-15T08:20:47.651Z,9.23
2019-02-15T08:23:16.701Z,10.07
2019-02-15T08:25:45.155Z,9.50
2019-02-15T08:28:13.672Z,9.13
2019-02-15T08:30:42.128Z,9.80
2019-02-15T08:33:10.563Z,9.23
2019-02-15T08:35:39.042Z,9.53
2019-02-15T08:38:07.530Z,8.83
2019-02-15T08:40:55.324Z,9.07
2019-02-15T08:43:23.763Z,9.00
2019-02-15T08:46:00.387Z,9.30
2019-02-15T08:48:22.380Z,8.90
2019-02-15T08:50:50.843Z,10.20
2019-02-15T08:53:19.286Z,9.37
2019-02-15T08:55:47.747Z,10.17
2019-02-15T08:58:16.787Z,8.60
2019-02-15T09:00:45.255Z,10.27
2019-02-15T09:03:13.731Z,9.07
2019-02-15T09:05:42.191Z,9.17
2019-02-15T09:08:10.637Z,9.23
2019-02-15T09:10:39.087Z,9.40
2019-02-15T09:13:07.549Z,8.73
2019-02-15T09:15:36.000Z,9.13
2019-02-15T09:18:04.443Z,9.67
2019-02-15T09:20:32.898Z,8.63
2019-02-15T09:23:01.350Z,8.87
2019-02-15T09:25:29.795Z,8.97
2019-02-15T09:27:59.895Z,8.57
2019-02-15T09:30:28.343Z,8.43
2019-02-15T09:32:56.806Z,8.57
2019-02-15T09:35:25.252Z,9.53
2019-02-15T09:37:53.723Z,8.87
2019-02-15T09:40:22.177Z,9.73
2019-02-15T09:42:50.625Z,8.10
2019-02-15T09:45:19.067Z,8.53
2019-02-15T09:47:47.533Z,8.07
2019-02-15T09:50:16.889Z,8.80
2019-02-15T09:52:45.343Z,8.77
2019-02-15T09:55:13.789Z,8.87
2019-02-15T09:57:42.257Z,8.27
2019-02-15T10:00:11.317Z,8.63
2019-02-15T10:02:39.764Z,7.80
2019-02-15T10:05:09.343Z,8.80
2019-02-15T10:07:37.795Z,8.87
2019-02-15T10:10:14.895Z,8.70
2019-02-15T10:12:43.351Z,9.17
2019-02-15T10:15:12.267Z,8.77
2019-02-15T10:17:40.727Z,8.63
2019-02-15T10:20:09.530Z,7.67
2019-02-15T10:22:37.991Z,7.87
2019-02-15T10:25:08.573Z,8.63
2019-02-15T10:27:37.025Z,8.10
2019-02-15T10:30:12.764Z,8.17
2019-02-15T10:32:41.221Z,9.30
2019-02-15T10:35:10.903Z,9.00
2019-02-15T10:37:39.355Z,9.67
2019-02-15T10:40:09.643Z,9.43
2019-02-15T10:42:38.095Z,9.73
2019-02-15T10:45:15.104Z,9.47
2019-02-15T10:47:43.647Z,9.00
2019-02-15T10:50:12.170Z,8.73
2019-02-15T10:52:40.643Z,8.63
2019-02-15T10:55:09.588Z,7.93
2019-02-15T10:57:38.048Z,9.07
2019-02-15T11:00:11.544Z,9.03
2019-02-15T11:02:40.007Z,7.73
2019-02-15T11:05:09.059Z,8.67
2019-02-15T11:07:37.514Z,7.93
2019-02-15T11:10:08.608Z,10.83
2019-02-15T11:12:37.054Z,8.37
2019-02-15T11:15:11.041Z,8.43
2019-02-15T11:17:39.500Z,8.50
2019-02-15T11:20:10.785Z,7.73
2019-02-15T11:22:39.254Z,8.73
2019-02-15T11:25:09.826Z,8.37
2019-02-15T11:27:38.277Z,8.30
2019-02-15T11:30:09.910Z,7.80
2019-02-15T11:32:38.368Z,7.87
2019-02-15T11:35:14.419Z,8.00
2019-02-15T11:37:42.877Z,9.00
2019-02-15T11:40:15.271Z,7.13
2019-02-15T11:42:43.734Z,7.63
2019-02-15T11:45:14.090Z,7.60
2019-02-15T11:47:42.539Z,7.90
2019-02-15T11:50:15.849Z,8.17
2019-02-15T11:52:44.312Z,7.63
2019-02-15T11:55:12.755Z,8.23
2019-02-15T11:57:41.207Z,6.90
2019-02-15T12:00:27.922Z,6.60
2019-02-15T12:02:56.375Z,7.43
2019-02-15T12:05:24.819Z,7.07
2019-02-15T12:07:53.262Z,7.20
2019-02-15T12:10:21.711Z,7.00
2019-02-15T12:12:50.334Z,6.93
2019-02-15T12:15:18.788Z,7.07
2019-02-15T12:17:47.232Z,7.13
2019-02-15T12:20:15.759Z,6.47
2019-02-15T12:22:44.190Z,6.20
2019-02-15T12:25:12.819Z,6.57
2019-02-15T12:27:41.257Z,6.47
2019-02-15T12:30:12.111Z,6.13
2019-02-15T12:32:40.551Z,6.33
2019-02-15T12:35:10.244Z,6.63
2019-02-15T12:37:38.692Z,6.00
2019-02-15T12:40:09.048Z,5.93
2019-02-15T12:42:37.496Z,6.20
2019-02-15T12:45:11.100Z,6.70
2019-02-15T12:47:39.540Z,6.63
2019-02-15T12:50:11.065Z,6.63
2019-02-15T12:52:39.504Z,6.37
2019-02-15T12:55:07.987Z,6.03
2019-02-15T12:57:36.467Z,5.93
2019-02-15T13:00:11.160Z,5.70
2019-02-15T13:02:39.607Z,6.03
2019-02-15T13:05:09.508Z,6.27
2019-02-15T13:07:38.011Z,5.40
2019-02-15T13:10:10.074Z,5.80
2019-02-15T13:12:38.511Z,5.63
2019-02-15T13:15:08.698Z,5.70
2019-02-15T13:17:37.138Z,5.50
2019-02-15T13:20:08.034Z,5.60
2019-02-15T13:22:36.557Z,5.57
2019-02-15T13:25:06.542Z,4.97
2019-02-15T13:27:34.990Z,6.00
2019-02-15T13:30:04.402Z,5.90
2019-02-15T13:32:32.848Z,5.10
2019-02-15T13:35:01.310Z,5.17
2019-02-15T13:37:29.794Z,4.80
2019-02-15T13:39:58.250Z,5.23
2019-02-15T13:42:26.690Z,5.07
2019-02-15T13:44:55.144Z,5.50
2019-02-15T13:47:23.612Z,5.30
2019-02-15T13:49:52.067Z,5.70
2019-02-15T13:52:20.581Z,5.80
2019-02-15T13:54:49.041Z,5.17
2019-02-15T13:57:17.482Z,4.83
2019-02-15T13:59:45.935Z,4.57
2019-02-15T14:02:14.371Z,5.57
2019-02-15T14:04:42.829Z,5.77
2019-02-15T14:07:16.233Z,5.13
2019-02-15T14:09:44.681Z,4.87
2019-02-15T14:12:13.123Z,5.43
2019-02-15T14:14:41.572Z,5.40
2019-02-15T14:17:10.016Z,4.77
2019-02-15T14:19:38.464Z,5.17
2019-02-15T14:22:06.903Z,4.53
2019-02-15T14:24:35.346Z,5.10
2019-02-15T14:27:03.787Z,5.10
2019-02-15T14:29:32.251Z,5.57
2019-02-15T14:32:00.690Z,5.17
2019-02-15T14:34:29.147Z,5.43
2019-02-15T14:36:57.585Z,4.53
2019-02-15T14:39:26.036Z,5.40
2019-02-15T14:41:54.476Z,4.80
2019-02-15T14:44:22.922Z,4.77
2019-02-15T14:46:51.400Z,4.07
2019-02-15T14:49:19.906Z,3.80
2019-02-15T14:51:48.360Z,4.47
2019-02-15T14:54:17.526Z,3.90
2019-02-15T14:56:46.041Z,3.93
2019-02-15T14:59:14.515Z,3.70
2019-02-15T15:01:43.004Z,4.00
2019-02-15T15:04:11.443Z,5.37
2019-02-15T15:06:39.895Z,3.93
2019-02-15T15:09:09.195Z,3.93
2019-02-15T15:11:37.648Z,3.93
2019-02-15T15:14:06.099Z,3.73
2019-02-15T15:16:34.621Z,3.77
2019-02-15T15:19:03.063Z,3.30
2019-02-15T15:21:31.514Z,3.87
2019-02-15T15:23:59.959Z,3.63
2019-02-15T15:26:28.412Z,3.70
2019-02-15T15:28:56.861Z,3.67
2019-02-15T15:31:25.309Z,5.10
2019-02-15T15:33:53.758Z,3.70
2019-02-15T15:36:22.227Z,3.80
2019-02-15T15:38:50.673Z,4.30
2019-02-15T15:41:19.123Z,2.93
2019-02-15T15:43:47.627Z,3.50
2019-02-15T15:46:16.078Z,3.60
2019-02-15T15:48:44.526Z,3.97
2019-02-15T15:51:12.975Z,3.60
2019-02-15T15:53:41.410Z,3.33
2019-02-15T15:56:09.859Z,3.40
2019-02-15T15:58:38.301Z,3.37
2019-02-15T16:01:06.751Z,3.43
2019-02-15T16:03:35.195Z,3.27
2019-02-15T16:06:03.735Z,3.60
2019-02-15T16:08:32.169Z,3.97
2019-02-15T16:11:00.639Z,4.20
2019-02-15T16:13:29.080Z,4.20
2019-02-15T16:15:57.524Z,4.27
2019-02-15T16:18:33.009Z,4.13
2019-02-15T16:20:56.139Z,4.37
2019-02-15T16:23:24.575Z,4.70
2019-02-15T16:25:53.029Z,4.83
2019-02-15T16:28:21.471Z,4.20
2019-02-15T16:30:49.915Z,4.60
2019-02-15T16:33:18.359Z,4.60
2019-02-15T16:35:47.723Z,4.83
2019-02-15T16:38:16.159Z,6.20
2019-02-15T16:40:44.607Z,7.57
2019-02-15T16:43:13.047Z,7.60
2019-02-15T16:45:41.558Z,4.60
2019-02-15T16:48:10.001Z,4.27
2019-02-15T16:50:38.439Z,4.43
2019-02-15T16:53:06.875Z,4.10
2019-02-15T16:55:35.330Z,4.40
2019-02-15T16:58:03.788Z,4.80
2019-02-15T17:00:32.280Z,4.63
2019-02-15T17:03:00.785Z,4.80
2019-02-15T17:05:29.234Z,3.80
2019-02-15T17:07:57.663Z,4.13
2019-02-15T17:10:26.103Z,4.37
2019-02-15T17:12:54.543Z,3.60
2019-02-15T17:15:22.993Z,5.53
2019-02-15T17:17:51.426Z,4.23
2019-02-15T17:20:19.887Z,3.73
2019-02-15T17:22:48.331Z,4.43
2019-02-15T17:25:17.702Z,4.80
2019-02-15T17:27:46.127Z,8.27
2019-02-15T17:30:14.574Z,8.00
2019-02-15T17:32:43.021Z,4.53
2019-02-15T17:35:12.005Z,4.13
2019-02-15T17:37:40.522Z,3.90
2019-02-15T17:40:11.367Z,3.30
2019-02-15T17:42:39.817Z,3.87
2019-02-15T17:45:10.286Z,4.13
2019-02-15T17:47:38.734Z,4.10
2019-02-15T17:50:12.527Z,4.57
2019-02-15T17:52:41.032Z,4.50
2019-02-15T17:55:10.585Z,4.10
2019-02-15T17:57:39.183Z,4.77
2019-02-15T18:00:12.226Z,4.33
2019-02-15T18:02:40.675Z,3.90
2019-02-15T18:05:11.892Z,4.00
2019-02-15T18:07:40.337Z,4.07
2019-02-15T18:10:08.836Z,4.00
2019-02-15T18:12:37.284Z,4.10
2019-02-15T18:15:06.456Z,4.00
2019-02-15T18:17:34.923Z,4.33
2019-02-15T18:20:03.927Z,4.10
2019-02-15T18:22:32.375Z,4.77
2019-02-15T18:25:00.814Z,4.83
2019-02-15T18:27:29.255Z,4.23
2019-02-15T18:29:57.697Z,4.83
2019-02-15T18:32:26.216Z,4.47
2019-02-15T18:34:54.643Z,4.20
2019-02-15T18:37:23.098Z,5.13
2019-02-15T18:39:51.527Z,5.00
2019-02-15T18:42:19.983Z,4.67
2019-02-15T18:44:48.493Z,6.93
2019-02-15T18:47:17.856Z,6.27
2019-02-15T18:49:46.306Z,6.23
2019-02-15T18:52:14.736Z,5.57
2019-02-15T18:54:43.192Z,5.80
2019-02-15T18:57:11.630Z,4.87
2019-02-15T18:59:40.078Z,4.80
2019-02-15T19:02:08.526Z,5.50
2019-02-15T19:04:36.972Z,5.47
2019-02-15T19:07:05.410Z,5.50
2019-02-15T19:09:33.935Z,5.30
2019-02-15T19:12:02.371Z,5.33
2019-02-15T19:14:30.825Z,6.13
2019-02-15T19:16:59.263Z,5.43
2019-02-15T19:19:29.288Z,6.40
2019-02-15T19:21:58.095Z,5.80
2019-02-15T19:24:26.559Z,6.23
2019-02-15T19:26:54.986Z,7.07
2019-02-15T19:29:23.452Z,8.53
2019-02-15T19:31:51.904Z,8.23
2019-02-15T19:34:20.343Z,8.87
2019-02-15T19:36:48.784Z,9.47
2019-02-15T19:39:18.159Z,8.97
2019-02-15T19:41:46.595Z,8.70
2019-02-15T19:44:15.043Z,8.00
2019-02-15T19:46:43.483Z,10.00
2019-02-15T19:49:11.944Z,10.07
2019-02-15T19:51:40.383Z,11.83
2019-02-15T19:54:08.835Z,13.17
2019-02-15T19:56:37.276Z,13.93
2019-02-15T19:59:05.803Z,13.00
2019-02-15T20:01:34.239Z,14.00
2019-02-15T20:04:02.779Z,84.27
2019-02-15T20:06:31.228Z,18.07
2019-02-15T20:08:59.675Z,17.90
2019-02-15T20:11:28.170Z,15.83
2019-02-15T20:13:56.607Z,15.73
2019-02-15T20:16:25.068Z,17.53
2019-02-15T20:18:53.506Z,17.53
2019-02-15T20:21:23.095Z,20.03
2019-02-15T20:23:51.591Z,21.63
2019-02-15T20:26:20.077Z,17.87
2019-02-15T20:28:48.608Z,19.27
2019-02-15T20:31:17.068Z,20.07
2019-02-15T20:33:45.502Z,21.60
2019-02-15T20:36:13.963Z,23.30
2019-02-15T20:38:42.419Z,25.53
2019-02-15T20:41:11.035Z,34.43
2019-02-15T20:43:39.480Z,35.87
2019-02-15T20:46:07.944Z,37.13
2019-02-15T20:48:36.380Z,33.27
2019-02-15T20:51:04.833Z,29.40
2019-02-15T20:53:33.282Z,29.10
2019-02-15T20:56:01.740Z,29.13
2019-02-15T20:58:30.184Z,30.30
2019-02-15T21:00:58.648Z,35.63
2019-02-15T21:03:27.091Z,31.53
2019-02-15T21:05:55.546Z,30.37
2019-02-15T21:08:24.032Z,32.17
2019-02-15T21:10:55.035Z,28.97
2019-02-15T21:13:22.655Z,32.53
2019-02-15T21:15:51.119Z,30.63
2019-02-15T21:18:19.642Z,31.97
2019-02-15T21:20:48.467Z,31.60
2019-02-15T21:23:16.923Z,30.90
2019-02-15T21:25:45.379Z,30.63
2019-02-15T21:28:13.838Z,29.87
2019-02-15T21:30:42.334Z,29.67
2019-02-15T21:33:10.791Z,29.50
2019-02-15T21:35:39.243Z,30.30
2019-02-15T21:38:07.700Z,30.33
2019-02-15T21:40:36.147Z,28.37
2019-02-15T21:43:05.503Z,28.67
2019-02-15T21:45:33.954Z,29.07
2019-02-15T21:48:02.419Z,29.63
2019-02-15T21:50:30.936Z,29.55
2019-02-15T21:52:59.399Z,30.23
2019-02-15T21:55:27.857Z,34.67
2019-02-15T21:58:01.415Z,29.43
2019-02-15T22:00:27.159Z,28.23
2019-02-15T22:02:55.705Z,28.17
2019-02-15T22:05:24.182Z,25.87
2019-02-15T22:07:52.635Z,27.53
2019-02-15T22:10:21.088Z,25.33
2019-02-15T22:12:49.531Z,21.73
2019-02-15T22:15:18.519Z,20.60
2019-02-15T22:17:46.990Z,22.83
2019-02-15T22:20:16.379Z,20.50
2019-02-15T22:22:44.887Z,18.97
2019-02-15T22:25:13.341Z,20.13
2019-02-15T22:27:41.823Z,21.10
2019-02-15T22:30:15.291Z,27.67
2019-02-15T22:32:43.771Z,23.80
2019-02-15T22:35:12.215Z,21.87
2019-02-15T22:37:40.678Z,21.87
2019-02-15T22:40:28.899Z,20.97
2019-02-15T22:43:00.142Z,20.83
2019-02-15T22:45:28.635Z,22.17
2019-02-15T22:47:57.135Z,47.07
2019-02-15T22:50:25.574Z,23.03
2019-02-15T22:52:54.125Z,21.07
2019-02-15T22:55:22.632Z,20.60
2019-02-15T22:57:51.087Z,23.00
2019-02-15T23:00:29.947Z,21.80
2019-02-15T23:02:58.408Z,21.13
2019-02-15T23:05:27.034Z,22.47
2019-02-15T23:07:55.508Z,19.83
2019-02-15T23:10:23.948Z,22.43
2019-02-15T23:12:52.399Z,20.73
2019-02-15T23:15:20.922Z,20.67
2019-02-15T23:17:49.389Z,19.23
2019-02-15T23:20:18.647Z,20.43
2019-02-15T23:22:47.235Z,18.63
2019-02-15T23:25:15.706Z,19.53
2019-02-15T23:27:44.177Z,19.03
2019-02-15T23:30:12.619Z,18.23
2019-02-15T23:32:41.078Z,19.70
2019-02-15T23:35:09.519Z,21.73
2019-02-15T23:37:37.975Z,28.00
2019-02-15T23:40:06.580Z,20.83
2019-02-15T23:42:35.200Z,19.03
2019-02-15T23:45:03.854Z,18.73
2019-02-15T23:47:32.384Z,18.07
2019-02-15T23:50:00.943Z,17.37
2019-02-15T23:52:29.506Z,18.57
2019-02-15T23:54:57.977Z,18.50
2019-02-15T23:57:26.454Z,16.50
2019-02-15T23:59:54.912Z,13.63
